Plum Lake, Wisconsin
Current Conditions -  °F | °C
As of 12:35 AM on Sunday 26 Oct 2014 (Local Time) from KARV Reporting Station
Clear Clear  
Wind Chill: 40°   Ceiling: Unl
Heat Index: 44°   Visibility: 10mi
Dew Point: 27°   Wind: 7mph
Humidity: 51%   Direction: 320°NW
Pressure: 29.94"   Gusts: NA
Location:  46.0162°N, 89.524°W
Report Text: KARV 260535Z AUTO 32006KT 10SM CLR 07/M03 A2994 RMK AO2 T00671027
Loading
Personal Weather Stations






























Interactive Weather Map
Tropical Storm Tracking
New forecast layout! Learn more

10-Day Weather Forecast

Advertisements
Track Severe Weather on mobile